Aviation Digital Data Service (ADDS)

Output produced by METARs form (1603 UTC 21 September 2017)
found at http://www.aviationweather.gov/adds/metars/
 
HSOB 211400Z 35017KT 8000 TSRA FEW050 CB TO NW SCT050 32/21 Q1008
TAF HSOB 211100Z 2112/2218 VRB03KT CAVOK 
     TEMPO 2113/2118 9999 SCT040 SCT140 
     PROB30 
     TEMPO 2120/2201 6000 TSRA FEW045CB
       
TAF HSSJ 211000Z 2112/2218 15004KT 9999 FEW030 SCT040 
     PROB30 
     TEMPO 2112/2118 18006G16KT 6000 TSRA FEW040CB BKN090 
     BECMG 2119/2121 15004KT 9999 FEW040 SCT040
       
TAF HSKA 211100Z 2112/2218 VRB02KT CAVOK 
     TEMPO 2114/2118 9999 SCT040 SCT140 
     PROB30 
     TEMPO 2120/2200 6000 TSRA FEW045CB
       
HSSS 211600Z 31004KT CAVOK 38/09 Q1006 NOSIG
TAF HSSS 211100Z 2112/2218 VRB03KT CAVOK 
     TEMPO 2113/2118 9999 SCT040 SCT140 
     PROB30 
     TEMPO 2120/2201 6000 TSRA FEW045CB
       
HSPN 211400Z 03011KT CAVOK 36/17 Q1005
TAF HSPN 210500Z 2106/2212 27008KT CAVOK 
     FM211100 05008G20KT 
     PROB30 
     TEMPO 2114/2118 8000 SCT030 SCT130 
     PROB30 
     TEMPO 2118/2122 09020G35KT TSRA FEW040CB